Time;durP1;ratioP1;P1;durP2;ratioP2;P2;SDS_P1;SDS_P2;PMS_P1;PMS_P2;Temp;Humidity;BMP_temperature;BMP_pressure;BME280_temperature;BME280_humidity;BME280_pressure;Samples;Min_cycle;Max_cycle;Signal;HPM_P1;HPM_P2
2021/05/17 00:01:58;;;;;;;3.33;1.33;;;;;;;;;;5013321;28;20022;-69
2021/05/17 00:04:32;;;;;;;5.32;1.70;;;;;;;;;;5014509;28;20100;-68
2021/05/17 00:06:58;;;;;;;2.53;1.30;;;;;;;;;;5005091;28;20026;-69
2021/05/17 00:09:24;;;;;;;4.18;1.45;;;;;;;;;;5014039;28;20493;-68
2021/05/17 00:11:49;;;;;;;1.98;1.42;;;;;;;;;;5013716;28;20033;-69
2021/05/17 00:14:14;;;;;;;2.70;1.02;;;;;;;;;;5013550;28;20022;-68
2021/05/17 00:16:40;;;;;;;5.38;1.13;;;;;;;;;;5013202;28;20041;-69
2021/05/17 00:19:05;;;;;;;3.97;1.10;;;;;;;;;;5013769;28;20057;-72
2021/05/17 00:21:31;;;;;;;4.13;1.65;;;;;;;;;;5013324;28;20105;-68
2021/05/17 00:23:56;;;;;;;1.73;1.25;;;;;;;;;;5013388;28;20123;-71
2021/05/17 00:26:21;;;;;;;7.93;2.15;;;;;;;;;;5012702;28;20091;-70
2021/05/17 00:28:47;;;;;;;6.82;1.58;;;;;;;;;;5013440;28;20017;-68
2021/05/17 00:31:12;;;;;;;6.10;1.45;;;;;;;;;;5013060;28;20033;-68
2021/05/17 00:33:37;;;;;;;4.88;1.48;;;;;;;;;;5013389;28;20029;-68
2021/05/17 00:36:03;;;;;;;5.90;1.48;;;;;;;;;;5013016;28;20032;-68
2021/05/17 00:38:28;;;;;;;4.03;1.45;;;;;;;;;;5012811;28;20022;-69
2021/05/17 00:40:53;;;;;;;5.38;1.52;;;;;;;;;;5012753;28;20026;-70
2021/05/17 00:43:24;;;;;;;4.38;1.88;;;;;;;;;;4995496;28;20379;-68
2021/05/17 00:45:49;;;;;;;5.20;1.70;;;;;;;;;;5012994;28;20462;-69
2021/05/17 00:48:15;;;;;;;3.90;1.70;;;;;;;;;;5012843;28;20053;-68
2021/05/17 00:50:40;;;;;;;4.00;1.92;;;;;;;;;;5013256;28;20470;-72
2021/05/17 00:53:05;;;;;;;7.30;1.70;;;;;;;;;;5013004;28;20065;-68
2021/05/17 00:55:31;;;;;;;2.92;2.20;;;;;;;;;;5013040;28;20029;-70
2021/05/17 00:57:56;;;;;;;4.35;1.58;;;;;;;;;;5012598;28;20091;-68
2021/05/17 01:00:23;;;;;;;2.58;1.73;;;;;;;;;;5012971;28;20022;-69
2021/05/17 01:02:48;;;;;;;3.95;1.90;;;;;;;;;;5012250;28;20029;-68
2021/05/17 01:05:14;;;;;;;5.32;2.15;;;;;;;;;;5012197;28;20405;-69
2021/05/17 01:07:45;;;;;;;5.72;1.95;;;;;;;;;;5011860;28;20053;-69
2021/05/17 01:10:11;;;;;;;5.65;1.92;;;;;;;;;;5012713;28;20017;-68
2021/05/17 01:12:36;;;;;;;4.82;2.25;;;;;;;;;;5012067;28;20049;-69
2021/05/17 01:15:03;;;;;;;2.53;1.65;;;;;;;;;;5012709;28;20462;-68
2021/05/17 01:17:28;;;;;;;3.33;1.77;;;;;;;;;;5012306;28;20018;-69
2021/05/17 01:20:03;;;;;;;4.40;1.70;;;;;;;;;;5012718;28;20517;-69
2021/05/17 01:22:34;;;;;;;3.15;2.30;;;;;;;;;;5012343;28;20025;-69
2021/05/17 01:25:00;;;;;;;3.78;1.85;;;;;;;;;;5011713;28;20017;-68
2021/05/17 01:27:25;;;;;;;6.28;2.08;;;;;;;;;;5012450;28;20044;-69
2021/05/17 01:29:50;;;;;;;4.47;1.95;;;;;;;;;;4994434;28;20022;-68
2021/05/17 01:32:16;;;;;;;4.53;2.22;;;;;;;;;;5012343;28;20032;-69
2021/05/17 01:34:41;;;;;;;6.90;2.58;;;;;;;;;;5012268;28;20367;-69
2021/05/17 01:37:08;;;;;;;6.22;2.10;;;;;;;;;;4994466;28;20020;-69
2021/05/17 01:39:34;;;;;;;2.45;1.67;;;;;;;;;;5011883;28;20553;-69
2021/05/17 01:41:59;;;;;;;5.15;2.30;;;;;;;;;;5011817;28;20025;-68
2021/05/17 01:44:25;;;;;;;6.57;2.20;;;;;;;;;;5011845;28;20017;-69
2021/05/17 01:46:50;;;;;;;4.05;2.28;;;;;;;;;;5011399;28;20057;-71
2021/05/17 01:49:16;;;;;;;5.78;2.03;;;;;;;;;;5012242;28;20026;-69
2021/05/17 01:51:45;;;;;;;4.88;2.00;;;;;;;;;;5011674;28;20029;-69
2021/05/17 01:54:11;;;;;;;2.78;1.55;;;;;;;;;;5011906;28;20087;-69
2021/05/17 01:56:37;;;;;;;5.57;2.15;;;;;;;;;;5011372;28;20538;-70
2021/05/17 01:59:02;;;;;;;3.22;1.50;;;;;;;;;;5011725;28;20030;-68
2021/05/17 02:01:27;;;;;;;5.15;2.17;;;;;;;;;;5010933;28;20061;-70
2021/05/17 02:03:53;;;;;;;3.47;2.00;;;;;;;;;;5011457;28;20371;-71
2021/05/17 02:06:18;;;;;;;2.88;1.55;;;;;;;;;;5011100;28;20463;-70
2021/05/17 02:08:45;;;;;;;4.40;1.90;;;;;;;;;;5010451;28;20026;-69
2021/05/17 02:11:11;;;;;;;1.45;1.25;;;;;;;;;;5010607;28;20029;-69
2021/05/17 02:13:37;;;;;;;5.78;1.90;;;;;;;;;;5010583;28;20138;-69
2021/05/17 02:16:03;;;;;;;4.68;1.77;;;;;;;;;;5010974;28;20109;-68
2021/05/17 02:18:28;;;;;;;2.92;1.20;;;;;;;;;;5011615;28;20032;-69
2021/05/17 02:20:53;;;;;;;4.85;2.08;;;;;;;;;;5010893;28;20053;-70
2021/05/17 02:23:18;;;;;;;5.13;1.80;;;;;;;;;;5011331;28;20465;-68
2021/05/17 02:25:45;;;;;;;5.13;1.55;;;;;;;;;;5010965;28;20026;-71
2021/05/17 02:28:11;;;;;;;2.75;1.65;;;;;;;;;;5011383;28;20021;-69
2021/05/17 02:30:37;;;;;;;4.13;1.60;;;;;;;;;;5011026;28;20038;-70
2021/05/17 02:33:02;;;;;;;7.60;1.52;;;;;;;;;;5010958;28;20437;-69
2021/05/17 02:35:28;;;;;;;4.88;1.75;;;;;;;;;;5011080;28;20032;-68
2021/05/17 02:37:53;;;;;;;5.55;2.20;;;;;;;;;;5010223;28;20048;-69
2021/05/17 02:40:18;;;;;;;8.00;1.80;;;;;;;;;;5010395;28;20104;-69
2021/05/17 02:42:45;;;;;;;3.83;2.60;;;;;;;;;;5010988;28;20105;-69
2021/05/17 02:45:11;;;;;;;8.75;1.55;;;;;;;;;;5010874;28;20014;-70
2021/05/17 02:47:37;;;;;;;5.75;1.90;;;;;;;;;;5009696;28;20568;-68
2021/05/17 02:50:03;;;;;;;4.57;2.13;;;;;;;;;;5010843;28;20384;-68
2021/05/17 02:52:29;;;;;;;4.78;1.70;;;;;;;;;;5010383;28;20494;-69
2021/05/17 02:55:00;;;;;;;3.78;2.28;;;;;;;;;;5010847;28;20037;-71
2021/05/17 02:57:26;;;;;;;6.05;1.67;;;;;;;;;;5010281;28;20141;-69
2021/05/17 03:00:03;;;;;;;4.47;2.22;;;;;;;;;;5010500;28;20033;-68
2021/05/17 03:02:38;;;;;;;4.97;1.83;;;;;;;;;;5010565;28;20022;-70
2021/05/17 03:05:05;;;;;;;6.50;2.38;;;;;;;;;;5010840;28;20021;-69
2021/05/17 03:07:33;;;;;;;7.68;1.88;;;;;;;;;;5010117;28;20496;-69
2021/05/17 03:10:00;;;;;;;4.68;1.98;;;;;;;;;;5010263;28;20478;-69
2021/05/17 03:12:27;;;;;;;3.97;1.80;;;;;;;;;;5010582;28;20030;-70
2021/05/17 03:14:53;;;;;;;2.80;1.73;;;;;;;;;;5010771;28;20072;-68
2021/05/17 03:17:18;;;;;;;9.73;2.42;;;;;;;;;;5010592;28;20474;-69
2021/05/17 03:19:44;;;;;;;10.02;1.90;;;;;;;;;;5010188;28;20032;-70
2021/05/17 03:22:09;;;;;;;11.05;2.28;;;;;;;;;;5010591;28;20057;-69
2021/05/17 03:24:36;;;;;;;4.35;2.13;;;;;;;;;;5010645;28;20024;-69
2021/05/17 03:27:15;;;;;;;3.88;1.80;;;;;;;;;;5016411;28;20078;-69
2021/05/17 03:29:40;;;;;;;12.75;4.03;;;;;;;;;;5015782;28;20036;-68
2021/05/17 03:32:05;;;;;;;2.33;1.70;;;;;;;;;;5016426;28;20034;-68
2021/05/17 03:34:30;;;;;;;6.97;2.03;;;;;;;;;;5016586;28;20281;-68
2021/05/17 03:36:56;;;;;;;7.75;2.20;;;;;;;;;;5016066;28;20287;-68
2021/05/17 03:39:21;;;;;;;7.05;2.30;;;;;;;;;;5016957;28;20280;-69
2021/05/17 03:41:47;;;;;;;10.70;2.30;;;;;;;;;;5015722;28;20830;-68
2021/05/17 03:44:12;;;;;;;3.08;1.70;;;;;;;;;;5017198;28;20453;-68
2021/05/17 03:46:37;;;;;;;4.57;2.10;;;;;;;;;;5016250;28;20106;-68
2021/05/17 03:49:02;;;;;;;3.40;1.80;;;;;;;;;;5016841;28;20265;-70
2021/05/17 03:51:28;;;;;;;5.50;2.22;;;;;;;;;;5016286;28;20471;-69
2021/05/17 03:53:53;;;;;;;4.40;2.00;;;;;;;;;;5016266;28;20505;-69
2021/05/17 03:56:18;;;;;;;4.37;2.03;;;;;;;;;;5016419;28;20463;-68
2021/05/17 03:58:43;;;;;;;4.63;2.28;;;;;;;;;;5016862;28;20340;-69
2021/05/17 04:01:09;;;;;;;7.00;1.80;;;;;;;;;;4998789;28;20348;-68
2021/05/17 04:03:34;;;;;;;7.40;2.15;;;;;;;;;;5016168;28;20034;-68
2021/05/17 04:06:19;;;;;;;6.03;2.37;;;;;;;;;;5016052;28;20435;-70
2021/05/17 04:14:11;;;;;;;3.53;2.00;;;;;;;;;;5016267;28;20084;-70
2021/05/17 04:16:36;;;;;;;9.13;2.13;;;;;;;;;;5016080;28;20421;-67
2021/05/17 04:19:02;;;;;;;2.80;1.57;;;;;;;;;;5016393;28;20280;-69
2021/05/17 04:21:27;;;;;;;7.20;2.20;;;;;;;;;;5015812;28;20697;-68
2021/05/17 04:23:52;;;;;;;5.83;1.40;;;;;;;;;;5016317;28;20026;-69
2021/05/17 04:26:17;;;;;;;4.43;1.90;;;;;;;;;;5014088;28;20795;-70
2021/05/17 04:28:42;;;;;;;5.37;2.10;;;;;;;;;;5012663;28;20505;-68
2021/05/17 04:31:07;;;;;;;4.80;1.50;;;;;;;;;;5014317;28;20264;-69
2021/05/17 04:33:33;;;;;;;4.45;1.85;;;;;;;;;;5013245;28;20780;-69
2021/05/17 04:35:58;;;;;;;4.45;2.05;;;;;;;;;;5012574;28;20264;-69
2021/05/17 04:38:23;;;;;;;3.75;1.75;;;;;;;;;;4992655;28;20490;-70
2021/05/17 04:40:48;;;;;;;2.55;1.60;;;;;;;;;;5011003;28;20033;-71
2021/05/17 04:43:13;;;;;;;3.65;1.60;;;;;;;;;;5010821;28;20072;-69
2021/05/17 04:45:39;;;;;;;1.57;1.17;;;;;;;;;;5009822;28;20022;-70
2021/05/17 04:48:04;;;;;;;4.85;2.20;;;;;;;;;;5010145;28;20273;-68
2021/05/17 04:50:29;;;;;;;5.63;1.80;;;;;;;;;;5010647;28;20017;-69
2021/05/17 04:52:55;;;;;;;3.88;2.30;;;;;;;;;;5008987;28;20084;-71
2021/05/17 04:55:20;;;;;;;1.00;0.65;;;;;;;;;;5010918;28;20273;-67
2021/05/17 04:57:45;;;;;;;5.68;1.88;;;;;;;;;;5010720;28;20069;-71
2021/05/17 05:00:11;;;;;;;3.10;1.60;;;;;;;;;;5010759;28;20017;-68
2021/05/17 05:02:36;;;;;;;5.30;1.85;;;;;;;;;;5009495;28;20045;-68
2021/05/17 05:05:01;;;;;;;2.13;1.52;;;;;;;;;;5010944;28;20505;-68
2021/05/17 05:07:26;;;;;;;2.00;1.30;;;;;;;;;;4993333;28;20363;-68
2021/05/17 05:09:52;;;;;;;7.15;2.67;;;;;;;;;;5007225;28;20022;-71
2021/05/17 05:12:17;;;;;;;6.20;1.63;;;;;;;;;;5010763;28;20482;-69
2021/05/17 05:14:42;;;;;;;9.98;1.67;;;;;;;;;;5009683;28;20136;-69
2021/05/17 05:17:07;;;;;;;5.37;2.03;;;;;;;;;;5010227;28;20069;-69
2021/05/17 05:19:32;;;;;;;4.78;2.47;;;;;;;;;;5010259;28;20272;-69
2021/05/17 05:21:58;;;;;;;5.60;2.03;;;;;;;;;;5010256;28;20375;-69
2021/05/17 05:24:23;;;;;;;5.95;1.90;;;;;;;;;;5007656;28;20417;-69
2021/05/17 05:29:43;;;;;;;6.10;2.07;;;;;;;;;;5009558;28;20486;-68
2021/05/17 05:34:57;;;;;;;5.72;1.65;;;;;;;;;;4978334;28;20096;-68
2021/05/17 05:37:22;;;;;;;6.35;2.40;;;;;;;;;;4991787;28;20025;-68
2021/05/17 05:39:47;;;;;;;8.38;1.88;;;;;;;;;;5010269;28;20022;-69
2021/05/17 05:42:12;;;;;;;3.90;2.05;;;;;;;;;;5009448;28;20108;-69
2021/05/17 05:44:46;;;;;;;9.80;2.38;;;;;;;;;;5006389;28;20060;-68
2021/05/17 05:47:15;;;;;;;4.90;2.67;;;;;;;;;;5011343;28;20108;-69
2021/05/17 05:49:40;;;;;;;5.72;2.30;;;;;;;;;;5005668;28;20076;-70
2021/05/17 05:52:05;;;;;;;6.93;1.52;;;;;;;;;;5010947;28;20018;-70
2021/05/17 05:54:31;;;;;;;13.15;2.22;;;;;;;;;;5012314;28;20368;-71
2021/05/17 05:56:56;;;;;;;7.05;1.90;;;;;;;;;;4993047;28;20026;-69
2021/05/17 05:59:21;;;;;;;5.40;2.97;;;;;;;;;;5011652;28;20025;-69
2021/05/17 06:01:46;;;;;;;4.93;2.40;;;;;;;;;;5011346;28;20038;-69
2021/05/17 06:04:11;;;;;;;5.93;2.33;;;;;;;;;;5011649;28;20261;-69
2021/05/17 06:06:36;;;;;;;7.00;2.33;;;;;;;;;;5010820;28;20280;-69
2021/05/17 06:09:02;;;;;;;10.00;2.60;;;;;;;;;;5010892;28;20664;-69
2021/05/17 06:11:27;;;;;;;5.00;2.20;;;;;;;;;;5010565;28;20261;-69
2021/05/17 06:13:52;;;;;;;11.25;3.05;;;;;;;;;;5010641;28;20042;-69
2021/05/17 06:16:17;;;;;;;4.10;2.58;;;;;;;;;;5008089;28;20036;-69
2021/05/17 06:18:43;;;;;;;6.30;2.58;;;;;;;;;;5010771;28;20026;-69
2021/05/17 06:21:08;;;;;;;6.38;1.80;;;;;;;;;;5010435;28;20036;-69
2021/05/17 06:23:34;;;;;;;5.57;2.30;;;;;;;;;;5010405;28;20113;-69
2021/05/17 06:25:59;;;;;;;4.70;2.75;;;;;;;;;;5010507;28;20100;-68
2021/05/17 06:28:25;;;;;;;10.38;2.50;;;;;;;;;;5010964;28;20024;-68
2021/05/17 06:30:56;;;;;;;3.28;1.77;;;;;;;;;;5010621;28;20062;-68
2021/05/17 06:33:22;;;;;;;4.18;2.13;;;;;;;;;;5011020;28;20044;-68
2021/05/17 06:35:56;;;;;;;7.93;2.95;;;;;;;;;;5010551;28;20490;-68
2021/05/17 06:38:21;;;;;;;5.05;2.13;;;;;;;;;;5010088;28;20028;-68
2021/05/17 06:40:46;;;;;;;2.53;1.92;;;;;;;;;;5010704;28;20385;-68
2021/05/17 06:43:12;;;;;;;7.25;2.78;;;;;;;;;;5010879;28;20467;-68
2021/05/17 06:45:37;;;;;;;12.70;2.00;;;;;;;;;;5010392;28;20037;-68
2021/05/17 06:48:03;;;;;;;8.70;3.03;;;;;;;;;;5010154;28;20034;-68
2021/05/17 06:50:29;;;;;;;5.40;2.67;;;;;;;;;;5010808;28;20113;-69
2021/05/17 06:52:54;;;;;;;10.35;2.20;;;;;;;;;;5010774;28;20022;-69
2021/05/17 06:55:22;;;;;;;8.70;2.38;;;;;;;;;;5011012;28;20429;-69
2021/05/17 07:00:28;;;;;;;4.72;1.42;;;;;;;;;;5009944;28;20026;-69
2021/05/17 07:02:54;;;;;;;8.52;1.75;;;;;;;;;;5010281;28;20142;-69
2021/05/17 07:05:20;;;;;;;4.15;1.55;;;;;;;;;;5010517;28;20045;-68
2021/05/17 07:13:15;;;;;;;5.88;1.25;;;;;;;;;;5009092;28;20105;-69
2021/05/17 07:15:40;;;;;;;11.73;1.17;;;;;;;;;;5010160;28;20105;-70
2021/05/17 07:18:06;;;;;;;8.65;1.90;;;;;;;;;;5009788;28;20378;-69
2021/05/17 07:25:43;;;;;;;3.25;1.25;;;;;;;;;;5009829;28;20078;-73
2021/05/17 07:28:09;;;;;;;10.17;2.33;;;;;;;;;;5010257;28;20101;-70
2021/05/17 07:30:34;;;;;;;5.95;1.73;;;;;;;;;;5009922;28;20705;-68
2021/05/17 07:32:59;;;;;;;16.97;1.93;;;;;;;;;;5010019;28;20482;-68
2021/05/17 07:35:25;;;;;;;6.95;1.50;;;;;;;;;;5010045;28;20260;-71
2021/05/17 07:37:50;;;;;;;8.73;2.00;;;;;;;;;;5009749;28;20368;-69
2021/05/17 07:40:15;;;;;;;6.45;1.63;;;;;;;;;;4992754;28;20525;-68
2021/05/17 07:42:40;;;;;;;10.52;2.20;;;;;;;;;;5009574;28;20028;-71
2021/05/17 07:45:06;;;;;;;7.67;3.63;;;;;;;;;;5010149;28;20088;-69
2021/05/17 07:47:31;;;;;;;7.45;1.83;;;;;;;;;;5009754;28;20272;-70
2021/05/17 07:49:56;;;;;;;5.82;2.60;;;;;;;;;;5010338;28;20026;-69
2021/05/17 07:52:22;;;;;;;19.27;3.20;;;;;;;;;;5009675;28;20037;-69
2021/05/17 07:54:47;;;;;;;9.45;2.55;;;;;;;;;;5009838;28;20314;-68
2021/05/17 07:57:13;;;;;;;6.40;2.40;;;;;;;;;;5010118;28;20487;-69
2021/05/17 07:59:38;;;;;;;9.70;2.10;;;;;;;;;;5009469;28;20025;-69
2021/05/17 08:02:04;;;;;;;5.80;1.77;;;;;;;;;;5009171;28;20083;-70
2021/05/17 08:04:29;;;;;;;8.15;1.23;;;;;;;;;;5010033;28;20390;-69
2021/05/17 08:06:55;;;;;;;3.40;0.90;;;;;;;;;;5009746;28;20487;-69
2021/05/17 08:09:20;;;;;;;4.78;0.98;;;;;;;;;;5010023;28;20406;-68
2021/05/17 08:11:46;;;;;;;6.07;1.10;;;;;;;;;;5009952;28;20140;-69
2021/05/17 08:14:12;;;;;;;6.30;1.38;;;;;;;;;;5013799;28;20533;-69
2021/05/17 08:16:37;;;;;;;9.38;0.77;;;;;;;;;;4995263;28;20072;-69
2021/05/17 08:19:02;;;;;;;28.15;10.48;;;;;;;;;;5013568;28;20048;-68
2021/05/17 08:21:27;;;;;;;3.80;1.23;;;;;;;;;;5013296;28;20100;-69
2021/05/17 08:23:55;;;;;;;6.57;0.98;;;;;;;;;;5013101;28;20029;-69
2021/05/17 08:26:21;;;;;;;3.65;0.98;;;;;;;;;;5013378;28;20029;-69
2021/05/17 08:28:46;;;;;;;1.97;0.60;;;;;;;;;;5012992;28;20026;-68
2021/05/17 08:31:14;;;;;;;3.60;0.75;;;;;;;;;;5013343;28;20300;-69
2021/05/17 08:33:40;;;;;;;5.03;0.80;;;;;;;;;;5010866;28;20025;-68
2021/05/17 08:36:06;;;;;;;3.72;1.02;;;;;;;;;;5013307;28;20022;-68
2021/05/17 08:38:31;;;;;;;6.55;1.17;;;;;;;;;;5013247;28;20021;-71
2021/05/17 08:40:56;;;;;;;4.30;0.90;;;;;;;;;;5013308;28;20022;-69
2021/05/17 08:43:21;;;;;;;10.25;1.20;;;;;;;;;;5012800;28;20041;-70
2021/05/17 08:45:46;;;;;;;2.00;0.93;;;;;;;;;;5012594;28;20079;-68
2021/05/17 08:48:12;;;;;;;10.18;1.17;;;;;;;;;;4995289;28;20265;-69
2021/05/17 08:50:38;;;;;;;4.10;1.10;;;;;;;;;;5012685;28;20382;-70
2021/05/17 08:53:03;;;;;;;5.65;1.08;;;;;;;;;;5012644;28;20025;-68
2021/05/17 08:55:28;;;;;;;2.63;0.65;;;;;;;;;;5012874;28;20018;-68
2021/05/17 08:57:54;;;;;;;4.43;1.57;;;;;;;;;;5012440;28;20026;-69
2021/05/17 09:00:20;;;;;;;2.40;1.30;;;;;;;;;;5012735;28;20269;-68
2021/05/17 09:02:46;;;;;;;6.90;1.30;;;;;;;;;;5012460;28;20623;-68
2021/05/17 09:05:17;;;;;;;9.25;1.00;;;;;;;;;;5012178;28;20096;-69
2021/05/17 09:07:52;;;;;;;6.28;0.98;;;;;;;;;;5012649;28;20071;-68
2021/05/17 09:10:19;;;;;;;1.63;0.52;;;;;;;;;;5012405;28;20010;-70
2021/05/17 09:12:53;;;;;;;2.92;0.68;;;;;;;;;;5012233;28;20040;-69
2021/05/17 09:15:25;;;;;;;1.73;0.55;;;;;;;;;;5011987;28;20505;-69
2021/05/17 09:17:58;;;;;;;3.22;1.05;;;;;;;;;;5011865;28;20886;-69
2021/05/17 09:20:25;;;;;;;0.80;0.45;;;;;;;;;;5012460;28;20435;-68
2021/05/17 09:23:03;;;;;;;1.17;0.45;;;;;;;;;;5011380;28;20116;-68
2021/05/17 09:25:29;;;;;;;7.47;1.10;;;;;;;;;;5012241;28;20029;-69
2021/05/17 09:27:59;;;;;;;1.07;0.40;;;;;;;;;;5012211;28;20026;-68
2021/05/17 09:30:24;;;;;;;2.90;1.05;;;;;;;;;;5011981;28;20265;-72
2021/05/17 09:32:50;;;;;;;4.57;0.63;;;;;;;;;;5012436;28;20430;-68
2021/05/17 09:35:19;;;;;;;2.93;1.00;;;;;;;;;;5012562;28;20032;-71
2021/05/17 09:37:49;;;;;;;1.27;0.60;;;;;;;;;;5011618;28;20280;-68
2021/05/17 09:40:23;;;;;;;1.90;0.63;;;;;;;;;;4994799;28;20375;-68
2021/05/17 09:43:01;;;;;;;0.98;0.50;;;;;;;;;;5011698;28;20025;-68
2021/05/17 09:45:30;;;;;;;2.80;0.60;;;;;;;;;;5011449;28;20478;-68
2021/05/17 09:47:56;;;;;;;2.35;0.68;;;;;;;;;;5012095;28;20010;-69
2021/05/17 09:50:21;;;;;;;2.65;0.73;;;;;;;;;;5011496;28;20020;-68
2021/05/17 09:52:46;;;;;;;6.07;0.80;;;;;;;;;;5007985;28;20242;-69
2021/05/17 09:55:12;;;;;;;5.83;1.23;;;;;;;;;;5011337;28;20256;-69
2021/05/17 09:57:38;;;;;;;4.97;0.70;;;;;;;;;;5010818;28;20820;-68
2021/05/17 10:00:20;;;;;;;7.38;1.08;;;;;;;;;;5011621;28;20490;-67
2021/05/17 10:02:52;;;;;;;6.03;0.80;;;;;;;;;;5011349;28;20030;-68
2021/05/17 10:05:21;;;;;;;6.35;1.27;;;;;;;;;;5010797;28;20014;-68
2021/05/17 10:07:47;;;;;;;2.53;0.45;;;;;;;;;;5011335;28;20148;-67
2021/05/17 10:10:13;;;;;;;2.75;0.80;;;;;;;;;;5011386;28;20360;-68
2021/05/17 10:12:39;;;;;;;5.10;0.80;;;;;;;;;;5011016;28;20146;-68
2021/05/17 10:15:05;;;;;;;10.75;2.60;;;;;;;;;;5011607;28;20102;-71
2021/05/17 10:17:32;;;;;;;9.43;2.17;;;;;;;;;;5010461;28;20021;-70
2021/05/17 10:19:57;;;;;;;7.03;1.60;;;;;;;;;;5011486;28;20462;-67
2021/05/17 10:22:23;;;;;;;3.95;1.70;;;;;;;;;;5011253;28;20053;-70
2021/05/17 10:24:48;;;;;;;6.30;3.22;;;;;;;;;;5011529;28;20485;-70
2021/05/17 10:27:14;;;;;;;14.07;2.93;;;;;;;;;;5010748;28;20413;-68
2021/05/17 10:29:39;;;;;;;5.90;1.92;;;;;;;;;;5010684;28;20312;-70
2021/05/17 10:32:07;;;;;;;7.18;1.40;;;;;;;;;;5010863;28;20025;-68
2021/05/17 10:34:45;;;;;;;6.38;0.95;;;;;;;;;;5010435;28;20080;-68
2021/05/17 10:37:17;;;;;;;13.27;1.23;;;;;;;;;;5010649;28;20034;-68
2021/05/17 10:39:46;;;;;;;2.90;0.80;;;;;;;;;;5011092;28;20025;-70
2021/05/17 10:47:41;;;;;;;4.32;1.25;;;;;;;;;;5008136;28;20072;-71
2021/05/17 10:50:12;;;;;;;18.20;7.50;;;;;;;;;;5010913;28;20021;-70
2021/05/17 10:52:37;;;;;;;10.52;1.10;;;;;;;;;;5009676;28;20466;-70
2021/05/17 10:55:07;;;;;;;5.50;0.70;;;;;;;;;;5009303;28;20026;-71
2021/05/17 10:57:41;;;;;;;5.32;0.82;;;;;;;;;;5009624;28;20022;-71
2021/05/17 11:00:23;;;;;;;1.08;0.47;;;;;;;;;;4992767;28;20022;-70
2021/05/17 11:03:04;;;;;;;5.60;0.80;;;;;;;;;;5010655;28;20541;-70
2021/05/17 11:05:30;;;;;;;2.15;0.80;;;;;;;;;;5010553;28;20034;-73
2021/05/17 11:07:55;;;;;;;1.95;0.70;;;;;;;;;;5009875;28;20380;-70
2021/05/17 11:10:25;;;;;;;1.00;0.60;;;;;;;;;;5010332;28;20013;-70
2021/05/17 11:12:58;;;;;;;2.47;0.60;;;;;;;;;;5039725;23;20312;-67
2021/05/17 11:15:24;;;;;;;2.65;0.90;;;;;;;;;;5026343;28;20550;-64
2021/05/17 11:17:50;;;;;;;12.55;2.47;;;;;;;;;;5029804;28;20017;-62
2021/05/17 11:20:33;;;;;;;44.85;11.77;;;;;;;;;;5029455;28;20075;-65
2021/05/17 11:22:59;;;;;;;32.55;11.63;;;;;;;;;;5030123;28;20125;-64
2021/05/17 11:25:43;;;;;;;29.38;10.02;;;;;;;;;;5029971;28;20109;-62
2021/05/17 11:28:08;;;;;;;12.75;4.85;;;;;;;;;;5029972;28;20067;-62
2021/05/17 11:30:38;;;;;;;13.07;2.30;;;;;;;;;;5029349;28;20021;-64
2021/05/17 11:33:16;;;;;;;5.38;2.28;;;;;;;;;;5030238;28;20256;-64
2021/05/17 11:36:00;;;;;;;10.82;2.55;;;;;;;;;;5030026;28;20033;-62
2021/05/17 11:38:25;;;;;;;9.15;2.28;;;;;;;;;;5029896;28;20036;-62
2021/05/17 11:40:51;;;;;;;12.30;5.55;;;;;;;;;;5029227;28;20412;-64
2021/05/17 11:43:17;;;;;;;2.53;0.82;;;;;;;;;;5029813;28;20404;-62
2021/05/17 11:45:42;;;;;;;4.95;0.70;;;;;;;;;;5029911;28;20021;-63
2021/05/17 11:48:07;;;;;;;3.93;0.60;;;;;;;;;;5032895;28;20208;-64
2021/05/17 11:50:32;;;;;;;3.92;1.00;;;;;;;;;;5025027;28;20315;-62
2021/05/17 11:52:58;;;;;;;1.10;0.57;;;;;;;;;;5016393;28;20101;-63
2021/05/17 11:55:23;;;;;;;5.18;0.50;;;;;;;;;;5032310;28;20322;-62
2021/05/17 11:57:48;;;;;;;3.13;0.82;;;;;;;;;;5033144;28;20026;-65
2021/05/17 12:00:16;;;;;;;4.43;0.88;;;;;;;;;;5033724;28;20087;-62
2021/05/17 12:02:44;;;;;;;3.90;0.50;;;;;;;;;;5033530;28;20055;-63
2021/05/17 12:05:10;;;;;;;6.78;1.23;;;;;;;;;;5033543;28;20483;-63
2021/05/17 12:07:45;;;;;;;3.42;0.75;;;;;;;;;;5033430;28;20160;-64
2021/05/17 12:10:10;;;;;;;1.27;0.60;;;;;;;;;;5032983;28;20055;-63
2021/05/17 12:12:35;;;;;;;1.58;0.63;;;;;;;;;;5033345;28;20021;-62
2021/05/17 12:15:04;;;;;;;3.08;0.90;;;;;;;;;;5033187;28;20025;-63
2021/05/17 12:17:32;;;;;;;2.67;1.00;;;;;;;;;;5032897;28;20037;-63
2021/05/17 12:19:59;;;;;;;4.30;1.10;;;;;;;;;;5033644;28;20474;-64
2021/05/17 12:22:29;;;;;;;6.47;1.77;;;;;;;;;;5033487;28;20026;-63
2021/05/17 12:24:55;;;;;;;6.68;1.60;;;;;;;;;;5032745;28;20096;-62
2021/05/17 12:27:21;;;;;;;4.35;1.88;;;;;;;;;;5032910;28;20489;-62
2021/05/17 12:30:05;;;;;;;3.55;1.33;;;;;;;;;;5033209;28;20025;-64
2021/05/17 12:32:33;;;;;;;8.18;1.67;;;;;;;;;;5032766;28;20028;-62
2021/05/17 12:34:59;;;;;;;2.85;1.17;;;;;;;;;;5032901;28;20032;-62
2021/05/17 12:37:26;;;;;;;3.83;1.65;;;;;;;;;;5032813;28;20021;-64
2021/05/17 12:40:24;;;;;;;3.53;1.25;;;;;;;;;;5032838;28;20025;-65
2021/05/17 12:43:08;;;;;;;4.00;1.27;;;;;;;;;;4988256;28;20069;-65
2021/05/17 12:45:35;;;;;;;7.70;2.15;;;;;;;;;;5032608;28;20043;-66
2021/05/17 12:48:00;;;;;;;13.15;1.75;;;;;;;;;;5032511;28;20020;-63
2021/05/17 12:50:26;;;;;;;7.25;2.80;;;;;;;;;;5032756;28;20025;-65
2021/05/17 12:53:08;;;;;;;5.20;1.67;;;;;;;;;;5025816;28;20434;-64
2021/05/17 12:55:48;;;;;;;6.20;1.45;;;;;;;;;;5028770;28;20037;-63
2021/05/17 12:58:14;;;;;;;;;;;;;;;;;;5029974;28;20378;-63
2021/05/17 13:00:44;;;;;;;11.27;3.35;;;;;;;;;;5028941;28;19909;-64
2021/05/17 13:03:12;;;;;;;5.00;1.63;;;;;;;;;;5032201;28;20040;-63
2021/05/17 13:05:47;;;;;;;9.48;1.98;;;;;;;;;;5032742;28;20018;-62
2021/05/17 13:08:12;;;;;;;5.35;1.85;;;;;;;;;;5032005;28;20385;-62
2021/05/17 13:10:57;;;;;;;10.43;2.28;;;;;;;;;;5032290;28;20024;-65
2021/05/17 13:13:41;;;;;;;2.50;0.82;;;;;;;;;;5022287;28;20045;-65
2021/05/17 13:16:06;;;;;;;5.78;1.83;;;;;;;;;;5032445;28;20100;-65
2021/05/17 13:18:50;;;;;;;4.75;1.48;;;;;;;;;;5032685;28;20096;-65
2021/05/17 13:21:19;;;;;;;8.00;1.50;;;;;;;;;;5032155;28;20063;-63
2021/05/17 13:31:44;;;;;;;4.18;2.10;;;;;;;;;;5031907;28;20060;-63
2021/05/17 13:34:10;;;;;;;9.18;3.08;;;;;;;;;;5031825;28;20116;-66
2021/05/17 13:36:35;;;;;;;7.43;2.00;;;;;;;;;;5031773;28;20422;-65
2021/05/17 13:39:00;;;;;;;5.50;2.10;;;;;;;;;;5031664;28;20458;-63
2021/05/17 13:41:27;;;;;;;7.10;2.13;;;;;;;;;;5031040;28;20298;-66
2021/05/17 13:43:52;;;;;;;6.57;2.13;;;;;;;;;;5031112;28;20458;-64
2021/05/17 13:46:17;;;;;;;5.63;2.03;;;;;;;;;;5030888;28;20029;-63
2021/05/17 13:48:49;;;;;;;7.90;2.80;;;;;;;;;;5028434;28;20260;-64
2021/05/17 13:51:14;;;;;;;8.35;2.78;;;;;;;;;;5031593;28;20025;-66
2021/05/17 13:53:40;;;;;;;7.85;2.55;;;;;;;;;;5031547;28;20024;-62
2021/05/17 13:56:05;;;;;;;8.48;2.50;;;;;;;;;;5030865;28;20093;-63
2021/05/17 13:58:30;;;;;;;7.90;3.20;;;;;;;;;;5031510;28;20519;-65
2021/05/17 14:00:55;;;;;;;11.00;3.03;;;;;;;;;;5030704;28;20280;-65
2021/05/17 14:03:20;;;;;;;7.67;3.67;;;;;;;;;;5030983;28;20017;-65
2021/05/17 14:05:46;;;;;;;8.23;3.20;;;;;;;;;;5013404;28;20355;-65
2021/05/17 14:08:12;;;;;;;8.20;2.97;;;;;;;;;;5013237;28;20025;-65
2021/05/17 14:10:37;;;;;;;9.05;3.35;;;;;;;;;;5030924;28;20024;-64
2021/05/17 14:13:02;;;;;;;8.83;3.57;;;;;;;;;;5030970;28;20422;-65
2021/05/17 14:15:27;;;;;;;7.18;2.40;;;;;;;;;;5031093;28;20339;-64
2021/05/17 14:17:52;;;;;;;13.82;3.78;;;;;;;;;;5031018;28;20022;-65
2021/05/17 14:20:18;;;;;;;11.55;3.08;;;;;;;;;;5031129;28;20096;-64
2021/05/17 14:22:43;;;;;;;14.27;4.50;;;;;;;;;;5031115;28;20022;-64
2021/05/17 14:25:09;;;;;;;8.93;1.98;;;;;;;;;;5030662;28;20389;-63
2021/05/17 14:27:35;;;;;;;17.77;3.42;;;;;;;;;;5031082;28;20028;-64
2021/05/17 14:30:02;;;;;;;10.80;3.55;;;;;;;;;;5030704;28;20030;-64
2021/05/17 14:32:27;;;;;;;15.00;6.78;;;;;;;;;;5030994;28;20025;-64
2021/05/17 14:34:52;;;;;;;11.95;4.07;;;;;;;;;;5031043;28;20025;-64
2021/05/17 14:37:18;;;;;;;14.00;5.40;;;;;;;;;;5030907;28;20041;-64
2021/05/17 14:39:43;;;;;;;13.57;4.80;;;;;;;;;;5030694;28;20268;-64
2021/05/17 14:42:08;;;;;;;13.60;4.63;;;;;;;;;;5030864;28;20112;-65
2021/05/17 14:44:33;;;;;;;6.93;3.75;;;;;;;;;;5030451;28;20071;-64
2021/05/17 14:46:59;;;;;;;5.43;3.80;;;;;;;;;;5030248;28;20028;-65
2021/05/17 14:49:24;;;;;;;9.40;3.42;;;;;;;;;;5030342;28;20017;-65
2021/05/17 14:51:49;;;;;;;4.90;3.50;;;;;;;;;;5030478;28;20108;-64
2021/05/17 14:54:15;;;;;;;9.93;5.40;;;;;;;;;;5030007;28;20748;-65
2021/05/17 14:56:41;;;;;;;11.00;5.10;;;;;;;;;;5029797;28;20029;-63
2021/05/17 14:59:06;;;;;;;14.80;5.50;;;;;;;;;;5030698;28;20446;-64
2021/05/17 15:01:31;;;;;;;18.80;7.13;;;;;;;;;;5029898;28;20048;-65
2021/05/17 15:03:56;;;;;;;17.75;8.80;;;;;;;;;;5012559;28;20489;-64
2021/05/17 15:06:22;;;;;;;21.00;9.30;;;;;;;;;;5029994;28;20260;-63
2021/05/17 15:08:47;;;;;;;17.67;7.22;;;;;;;;;;5030727;28;20098;-66
2021/05/17 15:11:12;;;;;;;20.00;7.50;;;;;;;;;;5030029;28;20465;-64
2021/05/17 15:13:38;;;;;;;8.52;4.43;;;;;;;;;;5030187;28;20393;-64
2021/05/17 15:16:03;;;;;;;9.32;3.60;;;;;;;;;;5029666;28;20065;-66
2021/05/17 15:18:28;;;;;;;11.75;4.20;;;;;;;;;;5030450;28;20017;-63